createdAt,value
2024-03-02T00:00:21.287Z,86.42
2024-03-02T00:01:21.422Z,86.93
2024-03-02T00:02:21.364Z,85.19
2024-03-02T00:03:21.499Z,88.02
2024-03-02T00:04:21.596Z,87.09
2024-03-02T00:05:21.572Z,86.36
2024-03-02T00:06:21.634Z,86.09
2024-03-02T00:07:21.650Z,86.16
2024-03-02T00:08:21.713Z,87.86
2024-03-02T00:09:21.866Z,85.88
2024-03-02T00:10:21.798Z,86.40
2024-03-02T00:11:21.892Z,86.93
2024-03-02T00:12:21.956Z,86.00
2024-03-02T00:13:21.966Z,85.45
2024-03-02T00:14:22.023Z,85.05
2024-03-02T00:15:22.112Z,85.81
2024-03-02T00:16:22.131Z,87.16
2024-03-02T00:17:22.217Z,85.54
2024-03-02T00:18:22.288Z,86.22
2024-03-02T00:19:22.310Z,85.80
2024-03-02T00:20:22.359Z,83.88
2024-03-02T00:21:22.488Z,85.69
2024-03-02T00:22:22.471Z,85.35
2024-03-02T00:23:22.528Z,84.66
2024-03-02T00:24:22.791Z,84.83
2024-03-02T00:25:22.658Z,85.13
2024-03-02T00:26:22.693Z,84.06
2024-03-02T00:27:22.793Z,84.61
2024-03-02T00:28:22.808Z,83.05
2024-03-02T00:29:22.872Z,82.15
2024-03-02T00:30:22.942Z,84.84
2024-03-02T00:31:22.973Z,84.52
2024-03-02T00:32:23.030Z,83.61
2024-03-02T00:33:23.244Z,83.29
2024-03-02T00:34:23.135Z,83.89
2024-03-02T00:35:23.190Z,83.21
2024-03-02T00:36:23.315Z,84.51
2024-03-02T00:37:23.318Z,83.88
2024-03-02T00:38:23.383Z,82.62
2024-03-02T00:39:23.511Z,82.97
2024-03-02T00:40:23.492Z,82.89
2024-03-02T00:41:23.559Z,83.84
2024-03-02T00:42:23.616Z,84.09
2024-03-02T00:43:23.655Z,84.50
2024-03-02T00:44:23.699Z,84.11
2024-03-02T00:45:23.797Z,82.22
2024-03-02T00:46:23.798Z,80.61
2024-03-02T00:47:23.861Z,81.58
2024-03-02T00:48:23.988Z,81.02
2024-03-02T00:49:23.954Z,82.62
2024-03-02T00:50:30.545Z,82.54
2024-03-02T00:51:25.076Z,82.62
2024-03-02T00:52:24.088Z,82.69
2024-03-02T00:53:24.108Z,83.59
2024-03-02T00:54:24.162Z,81.58
2024-03-02T00:55:24.200Z,83.13
2024-03-02T00:56:24.201Z,83.43
2024-03-02T00:57:24.285Z,83.02
2024-03-02T00:58:24.274Z,82.90
2024-03-02T00:59:24.311Z,81.37
2024-03-02T01:00:24.353Z,83.65
2024-03-02T01:01:24.503Z,81.62
2024-03-02T01:02:24.407Z,82.93
2024-03-02T01:03:24.460Z,82.33
2024-03-02T01:04:24.575Z,79.94
2024-03-02T01:05:24.525Z,80.11
2024-03-02T01:06:24.674Z,82.01
2024-03-02T01:07:24.586Z,82.08
2024-03-02T01:08:24.629Z,82.19
2024-03-02T01:09:24.687Z,82.03
2024-03-02T01:10:24.718Z,79.94
2024-03-02T01:11:24.983Z,81.39
2024-03-02T01:12:24.779Z,79.94
2024-03-02T01:13:24.822Z,78.95
2024-03-02T01:14:24.871Z,80.55
2024-03-02T01:15:24.955Z,80.87
2024-03-02T01:16:24.940Z,78.95
2024-03-02T01:17:24.985Z,79.74
2024-03-02T01:18:25.089Z,79.30
2024-03-02T01:19:25.158Z,81.56
2024-03-02T01:20:25.137Z,81.59
2024-03-02T01:21:25.232Z,80.55
2024-03-02T01:22:25.272Z,78.56
2024-03-02T01:23:25.308Z,79.01
2024-03-02T01:24:25.448Z,80.64
2024-03-02T01:25:25.445Z,78.76
2024-03-02T01:26:25.492Z,79.90
2024-03-02T01:27:25.594Z,78.99
2024-03-02T01:28:25.611Z,79.62
2024-03-02T01:29:25.683Z,79.24
2024-03-02T01:30:25.755Z,78.93
2024-03-02T01:31:25.795Z,79.79
2024-03-02T01:32:25.876Z,79.38
2024-03-02T01:33:25.939Z,79.55
2024-03-02T01:34:25.965Z,78.95
2024-03-02T01:35:26.024Z,78.60
2024-03-02T01:36:26.085Z,78.91
2024-03-02T01:37:26.126Z,78.89
2024-03-02T01:38:26.174Z,78.31
2024-03-02T01:39:26.260Z,78.38
2024-03-02T01:40:26.301Z,78.05
2024-03-02T01:41:26.352Z,78.39
2024-03-02T01:42:26.418Z,77.42
2024-03-02T01:43:26.460Z,79.29
2024-03-02T01:44:26.507Z,76.77
2024-03-02T01:45:26.549Z,79.19
2024-03-02T01:46:26.596Z,76.75
2024-03-02T01:47:26.701Z,78.73
2024-03-02T01:48:26.754Z,78.63
2024-03-02T01:49:26.777Z,78.01
2024-03-02T01:50:26.823Z,79.80
2024-03-02T01:51:26.915Z,77.23
2024-03-02T01:52:26.922Z,76.68
2024-03-02T01:53:26.968Z,76.85
2024-03-02T01:54:27.054Z,76.22
2024-03-02T01:55:27.081Z,75.87
2024-03-02T01:56:27.135Z,75.27
2024-03-02T01:57:27.237Z,78.28
2024-03-02T01:58:27.249Z,78.09
2024-03-02T01:59:27.317Z,77.08
2024-03-02T02:00:27.912Z,76.55
2024-03-02T02:01:27.460Z,74.45
2024-03-02T02:02:27.474Z,75.58
2024-03-02T02:03:27.538Z,77.02
2024-03-02T02:04:27.577Z,75.52
2024-03-02T02:05:27.636Z,76.41
2024-03-02T02:06:27.729Z,74.82
2024-03-02T02:07:27.731Z,76.10
2024-03-02T02:08:27.797Z,77.73
2024-03-02T02:09:27.884Z,74.70
2024-03-02T02:10:27.910Z,75.74
2024-03-02T02:11:27.978Z,75.56
2024-03-02T02:12:28.025Z,73.85
2024-03-02T02:13:28.056Z,75.85
2024-03-02T02:14:28.094Z,73.46
2024-03-02T02:15:28.319Z,73.48
2024-03-02T02:16:28.214Z,74.77
2024-03-02T02:17:28.297Z,74.59
2024-03-02T02:18:28.392Z,74.46
2024-03-02T02:19:28.382Z,73.40
2024-03-02T02:20:28.436Z,75.18
2024-03-02T02:21:28.650Z,74.53
2024-03-02T02:22:28.555Z,74.48
2024-03-02T02:23:28.621Z,74.00
2024-03-02T02:24:28.718Z,75.27
2024-03-02T02:25:28.733Z,72.23
2024-03-02T02:26:28.816Z,72.65
2024-03-02T02:27:28.869Z,74.71
2024-03-02T02:28:28.910Z,72.27
2024-03-02T02:29:28.963Z,74.18
2024-03-02T02:30:29.124Z,74.36
2024-03-02T02:31:29.062Z,73.28
2024-03-02T02:32:29.127Z,74.12
2024-03-02T02:33:29.255Z,74.46
2024-03-02T02:34:29.245Z,73.73
2024-03-02T02:35:29.324Z,73.36
2024-03-02T02:36:29.393Z,73.67
2024-03-02T02:37:29.436Z,73.26
2024-03-02T02:38:29.492Z,74.43
2024-03-02T02:39:29.574Z,74.46
2024-03-02T02:40:29.636Z,71.39
2024-03-02T02:41:29.646Z,72.82
2024-03-02T02:42:29.708Z,72.64
2024-03-02T02:43:29.765Z,72.75
2024-03-02T02:44:29.837Z,70.71
2024-03-02T02:45:29.970Z,73.07
2024-03-02T02:46:29.942Z,73.35
2024-03-02T02:47:30.044Z,74.19
2024-03-02T02:48:30.081Z,72.63
2024-03-02T02:49:30.125Z,71.98
2024-03-02T02:50:30.182Z,73.64
2024-03-02T02:51:30.282Z,70.42
2024-03-02T02:52:30.314Z,69.59
2024-03-02T02:53:30.372Z,71.51
2024-03-02T02:54:30.490Z,70.41
2024-03-02T02:55:30.508Z,70.87
2024-03-02T02:56:30.547Z,72.77
2024-03-02T02:57:30.615Z,70.45
2024-03-02T02:58:30.660Z,71.86
2024-03-02T02:59:30.730Z,71.15
2024-03-02T03:00:30.866Z,70.92
2024-03-02T03:01:30.948Z,70.99
2024-03-02T03:02:30.899Z,71.09
2024-03-02T03:03:30.981Z,71.50
2024-03-02T03:04:31.011Z,71.30
2024-03-02T03:05:31.082Z,71.70
2024-03-02T03:06:31.165Z,71.71
2024-03-02T03:07:31.209Z,70.53
2024-03-02T03:08:31.258Z,71.45
2024-03-02T03:09:31.352Z,69.84
2024-03-02T03:10:31.371Z,69.34
2024-03-02T03:11:31.453Z,70.62
2024-03-02T03:12:31.507Z,70.29
2024-03-02T03:13:31.553Z,70.30
2024-03-02T03:14:31.616Z,71.33
2024-03-02T03:15:31.689Z,70.70
2024-03-02T03:16:31.730Z,66.63
2024-03-02T03:17:31.788Z,70.31
2024-03-02T03:18:31.871Z,68.79
2024-03-02T03:19:31.891Z,69.00
2024-03-02T03:20:31.949Z,70.62
2024-03-02T03:21:32.051Z,68.86
2024-03-02T03:22:32.072Z,70.13
2024-03-02T03:23:32.129Z,69.00
2024-03-02T03:24:32.200Z,70.74
2024-03-02T03:25:32.249Z,67.86
2024-03-02T03:26:32.314Z,69.23
2024-03-02T03:27:32.400Z,70.00
2024-03-02T03:28:32.437Z,69.57
2024-03-02T03:29:32.489Z,69.31
2024-03-02T03:30:32.638Z,69.58
2024-03-02T03:31:32.598Z,68.50
2024-03-02T03:32:32.673Z,69.70
2024-03-02T03:33:32.750Z,68.86
2024-03-02T03:34:32.791Z,67.79
2024-03-02T03:35:32.825Z,68.27
2024-03-02T03:36:32.920Z,69.62
2024-03-02T03:37:32.941Z,68.21
2024-03-02T03:38:33.017Z,68.41
2024-03-02T03:39:33.167Z,69.59
2024-03-02T03:40:33.157Z,67.54
2024-03-02T03:41:33.196Z,68.16
2024-03-02T03:42:33.303Z,69.17
2024-03-02T03:43:33.306Z,68.44
2024-03-02T03:44:33.360Z,67.29
2024-03-02T03:45:33.467Z,67.24
2024-03-02T03:46:33.488Z,67.24
2024-03-02T03:47:33.572Z,68.19
2024-03-02T03:48:33.614Z,68.09
2024-03-02T03:49:33.665Z,67.33
2024-03-02T03:50:33.788Z,66.34
2024-03-02T03:51:33.878Z,67.44
2024-03-02T03:52:33.857Z,65.78
2024-03-02T03:53:33.928Z,69.43
2024-03-02T03:54:34.014Z,68.53
2024-03-02T03:55:34.019Z,67.26
2024-03-02T03:56:34.092Z,67.30
2024-03-02T03:57:34.213Z,65.95
2024-03-02T03:58:34.196Z,65.81
2024-03-02T03:59:34.308Z,66.48
2024-03-02T04:00:34.337Z,67.17
2024-03-02T04:01:34.400Z,66.50
2024-03-02T04:02:34.411Z,67.04
2024-03-02T04:03:34.497Z,66.55
2024-03-02T04:04:34.521Z,66.26
2024-03-02T04:05:34.614Z,64.85
2024-03-02T04:06:34.647Z,66.52
2024-03-02T04:07:34.678Z,63.72
2024-03-02T04:08:34.724Z,64.77
2024-03-02T04:09:34.811Z,65.28
2024-03-02T04:10:34.846Z,64.77
2024-03-02T04:11:34.999Z,67.73
2024-03-02T04:12:35.025Z,65.32
2024-03-02T04:13:35.121Z,65.26
2024-03-02T04:14:35.076Z,66.68
2024-03-02T04:15:35.185Z,65.72
2024-03-02T04:16:35.205Z,65.19
2024-03-02T04:17:35.382Z,65.22
2024-03-02T04:18:35.331Z,66.62
2024-03-02T04:19:35.391Z,68.08
2024-03-02T04:20:35.453Z,65.52
2024-03-02T04:21:35.543Z,66.47
2024-03-02T04:22:35.575Z,66.04
2024-03-02T04:23:35.625Z,66.01
2024-03-02T04:24:35.742Z,64.20
2024-03-02T04:25:35.736Z,65.78
2024-03-02T04:26:35.796Z,65.23
2024-03-02T04:27:35.908Z,65.49
2024-03-02T04:28:35.915Z,62.72
2024-03-02T04:29:35.967Z,65.62
2024-03-02T04:30:36.054Z,65.68
2024-03-02T04:31:36.103Z,64.45
2024-03-02T04:32:36.157Z,64.53
2024-03-02T04:33:36.215Z,64.52
2024-03-02T04:34:36.244Z,63.64
2024-03-02T04:35:36.293Z,61.84
2024-03-02T04:36:36.357Z,63.76
2024-03-02T04:37:36.408Z,63.82
2024-03-02T04:38:36.452Z,64.14
2024-03-02T04:39:36.559Z,62.49
2024-03-02T04:40:36.583Z,63.11
2024-03-02T04:41:36.643Z,64.75
2024-03-02T04:42:36.749Z,64.36
2024-03-02T04:43:36.758Z,64.12
2024-03-02T04:44:36.807Z,64.84
2024-03-02T04:45:36.886Z,62.98
2024-03-02T04:46:36.938Z,63.82
2024-03-02T04:47:37.009Z,64.17
2024-03-02T04:48:37.166Z,62.30
2024-03-02T04:49:37.217Z,64.28
2024-03-02T04:50:37.253Z,61.28
2024-03-02T04:51:37.266Z,63.38
2024-03-02T04:52:37.305Z,64.08
2024-03-02T04:53:37.365Z,64.28
2024-03-02T04:54:37.493Z,61.50
2024-03-02T04:55:37.478Z,62.37
2024-03-02T04:56:37.539Z,60.53
2024-03-02T04:57:37.643Z,61.69
2024-03-02T04:58:37.680Z,63.31
2024-03-02T04:59:45.029Z,50.00
2024-03-02T05:00:45.078Z,50.00
2024-03-02T05:01:45.040Z,50.00
2024-03-02T05:02:45.013Z,50.00
2024-03-02T05:03:45.080Z,50.00
2024-03-02T05:04:45.018Z,50.67
2024-03-02T05:05:45.014Z,50.06
2024-03-02T05:06:45.059Z,50.42
2024-03-02T05:07:45.038Z,49.93
2024-03-02T05:08:45.000Z,50.76
2024-03-02T05:09:45.046Z,51.66
2024-03-02T05:10:45.029Z,51.64
2024-03-02T05:11:44.996Z,52.65
2024-03-02T05:12:45.201Z,51.10
2024-03-02T05:13:45.008Z,52.51
2024-03-02T05:14:44.994Z,52.72
2024-03-02T05:15:45.032Z,51.75
2024-03-02T05:16:44.971Z,51.24
2024-03-02T05:17:45.057Z,52.41
2024-03-02T05:18:45.017Z,53.54
2024-03-02T05:19:44.975Z,52.65
2024-03-02T05:20:44.979Z,51.40
2024-03-02T05:21:45.036Z,52.57
2024-03-02T05:22:44.988Z,50.02
2024-03-02T05:23:44.995Z,54.05
2024-03-02T05:24:45.006Z,54.34
2024-03-02T05:25:45.001Z,52.30
2024-03-02T05:26:44.996Z,52.93
2024-03-02T05:27:45.103Z,54.09
2024-03-02T05:28:45.087Z,52.38
2024-03-02T05:29:44.997Z,51.68
2024-03-02T05:30:45.042Z,52.97
2024-03-02T05:31:44.991Z,50.42
2024-03-02T05:32:44.994Z,51.71
2024-03-02T05:33:45.192Z,50.98
2024-03-02T05:34:45.011Z,52.01
2024-03-02T05:35:44.996Z,52.42
2024-03-02T05:36:45.018Z,52.10
2024-03-02T05:37:45.003Z,50.69
2024-03-02T05:38:44.981Z,51.42
2024-03-02T05:39:45.062Z,50.83
2024-03-02T05:40:44.980Z,51.08
2024-03-02T05:41:44.977Z,51.40
2024-03-02T05:42:45.080Z,51.97
2024-03-02T05:43:45.007Z,50.47
2024-03-02T05:44:44.972Z,51.49
2024-03-02T05:45:45.016Z,54.27
2024-03-02T05:46:44.983Z,52.40
2024-03-02T05:47:45.034Z,52.50
2024-03-02T05:48:45.042Z,50.28
2024-03-02T05:49:44.985Z,52.09
2024-03-02T05:50:44.980Z,52.60
2024-03-02T05:51:45.023Z,52.44
2024-03-02T05:52:44.984Z,52.70
2024-03-02T05:53:44.980Z,51.74
2024-03-02T05:54:45.008Z,50.00
2024-03-02T05:55:44.991Z,52.16
2024-03-02T05:56:45.025Z,52.92
2024-03-02T05:57:45.163Z,53.23
2024-03-02T05:58:45.136Z,52.35
2024-03-02T05:59:45.160Z,52.95
2024-03-02T06:00:45.303Z,53.89
2024-03-02T06:01:45.392Z,51.75
2024-03-02T06:02:45.307Z,53.05
2024-03-02T06:03:45.356Z,50.56
2024-03-02T06:04:45.409Z,53.00
2024-03-02T06:05:45.428Z,54.23
2024-03-02T06:06:45.523Z,53.89
2024-03-02T06:07:45.522Z,52.15
2024-03-02T06:08:45.571Z,53.80
2024-03-02T06:09:45.682Z,55.01
2024-03-02T06:10:45.697Z,52.21
2024-03-02T06:11:45.702Z,53.71
2024-03-02T06:12:45.817Z,53.74
2024-03-02T06:13:45.790Z,52.77
2024-03-02T06:14:45.832Z,52.91
2024-03-02T06:15:45.972Z,52.91
2024-03-02T06:16:45.918Z,52.76
2024-03-02T06:17:45.985Z,54.21
2024-03-02T06:18:46.039Z,53.21
2024-03-02T06:19:46.040Z,53.61
2024-03-02T06:20:46.105Z,52.55
2024-03-02T06:21:46.160Z,51.82
2024-03-02T06:22:46.161Z,53.32
2024-03-02T06:23:46.212Z,52.36
2024-03-02T06:24:46.320Z,52.52
2024-03-02T06:25:46.314Z,52.80
2024-03-02T06:26:46.367Z,52.08
2024-03-02T06:27:46.473Z,53.04
2024-03-02T06:28:46.546Z,52.33
2024-03-02T06:29:46.503Z,53.27
2024-03-02T06:30:46.589Z,53.32
2024-03-02T06:31:46.594Z,50.00
2024-03-02T06:32:46.679Z,52.95
2024-03-02T06:33:46.768Z,53.71
2024-03-02T06:34:46.711Z,53.43
2024-03-02T06:35:46.752Z,53.96
2024-03-02T06:36:46.842Z,53.46
2024-03-02T06:37:46.858Z,53.82
2024-03-02T06:38:46.954Z,52.91
2024-03-02T06:39:46.963Z,52.48
2024-03-02T06:40:46.990Z,52.05
2024-03-02T06:41:47.005Z,53.29
2024-03-02T06:42:47.076Z,53.00
2024-03-02T06:43:47.101Z,54.16
2024-03-02T06:44:47.147Z,53.75
2024-03-02T06:45:47.210Z,53.19
2024-03-02T06:46:47.247Z,51.73
2024-03-02T06:47:47.348Z,53.64
2024-03-02T06:48:47.356Z,51.17
2024-03-02T06:49:47.353Z,51.60
2024-03-02T06:50:47.408Z,53.12
2024-03-02T06:51:47.455Z,50.00
2024-03-02T06:52:47.499Z,52.34
2024-03-02T06:53:47.540Z,51.44
2024-03-02T06:54:47.604Z,51.99
2024-03-02T06:55:47.601Z,52.10
2024-03-02T06:56:47.637Z,50.68
2024-03-02T06:57:47.848Z,50.50
2024-03-02T06:58:47.710Z,51.97
2024-03-02T06:59:47.744Z,52.77
2024-03-02T07:00:47.819Z,53.18
2024-03-02T07:01:47.960Z,52.34
2024-03-02T07:02:47.852Z,50.00
2024-03-02T07:03:47.942Z,54.26
2024-03-02T07:04:47.941Z,52.93
2024-03-02T07:05:47.977Z,51.60
2024-03-02T07:06:48.027Z,51.30
2024-03-02T07:07:48.081Z,53.41
2024-03-02T07:08:48.125Z,52.11
2024-03-02T07:09:48.177Z,52.38
2024-03-02T07:10:48.234Z,51.38
2024-03-02T07:11:52.019Z,51.60
2024-03-02T07:12:48.251Z,51.69
2024-03-02T07:13:48.225Z,51.92
2024-03-02T07:14:48.242Z,51.55
2024-03-02T07:15:48.247Z,52.71
2024-03-02T07:16:48.225Z,51.49
2024-03-02T07:17:48.224Z,50.82
2024-03-02T07:18:48.321Z,51.73
2024-03-02T07:19:48.244Z,50.51
2024-03-02T07:20:48.234Z,53.98
2024-03-02T07:21:48.263Z,52.90
2024-03-02T07:22:48.222Z,54.49
2024-03-02T07:23:48.245Z,52.72
2024-03-02T07:24:48.252Z,54.30
2024-03-02T07:27:48.239Z,53.29
2024-03-02T07:28:48.201Z,53.05
2024-03-02T07:29:48.189Z,53.16
2024-03-02T07:30:48.210Z,53.45
2024-03-02T07:31:48.179Z,52.25
2024-03-02T07:32:48.192Z,53.12
2024-03-02T07:33:48.307Z,50.37
2024-03-02T07:34:48.159Z,52.18
2024-03-02T07:35:48.166Z,51.20
2024-03-02T07:36:48.165Z,55.73
2024-03-02T07:37:48.148Z,52.87
2024-03-02T07:38:48.145Z,52.55
2024-03-02T07:39:48.223Z,52.47
2024-03-02T07:40:48.140Z,51.60
2024-03-02T07:41:48.128Z,52.17
2024-03-02T07:42:48.183Z,52.54
2024-03-02T07:43:48.124Z,53.83
2024-03-02T07:44:48.127Z,51.33
2024-03-02T07:45:48.144Z,51.16
2024-03-02T07:46:48.121Z,51.98
2024-03-02T07:47:48.149Z,53.69
2024-03-02T07:48:48.129Z,51.23
2024-03-02T07:49:48.102Z,51.71
2024-03-02T07:50:48.128Z,52.53
2024-03-02T07:51:48.163Z,53.49
2024-03-02T07:52:48.119Z,51.95
2024-03-02T07:53:48.248Z,53.73
2024-03-02T07:54:48.131Z,52.49
2024-03-02T07:55:48.097Z,53.32
2024-03-02T07:56:48.095Z,51.88
2024-03-02T07:57:48.108Z,53.16
2024-03-02T07:58:48.072Z,52.51
2024-03-02T07:59:48.151Z,50.01
2024-03-02T08:00:48.163Z,53.09
2024-03-02T08:01:48.078Z,51.01
2024-03-02T08:02:48.055Z,50.00
2024-03-02T08:03:48.077Z,52.36
2024-03-02T08:04:48.034Z,53.42
2024-03-02T08:05:48.031Z,50.76
2024-03-02T08:06:48.037Z,52.11
2024-03-02T08:07:48.003Z,50.04
2024-03-02T08:08:48.001Z,52.49
2024-03-02T08:09:48.030Z,52.67
2024-03-02T08:10:48.007Z,51.26
2024-03-02T08:11:47.977Z,51.38
2024-03-02T08:12:47.949Z,51.38
2024-03-02T08:13:47.946Z,53.82
2024-03-02T08:14:47.944Z,50.49
2024-03-02T08:15:47.975Z,52.25
2024-03-02T08:16:47.935Z,50.00
2024-03-02T08:17:47.952Z,54.39
2024-03-02T08:18:48.058Z,54.04
2024-03-02T08:19:47.910Z,52.48
2024-03-02T08:20:47.898Z,53.71
2024-03-02T08:21:47.955Z,52.92
2024-03-02T08:22:47.882Z,50.93
2024-03-02T08:23:47.895Z,52.26
2024-03-02T08:24:47.938Z,51.55
2024-03-02T08:25:47.866Z,52.03
2024-03-02T08:26:47.854Z,51.79
2024-03-02T08:27:48.255Z,52.05
2024-03-02T08:28:47.836Z,51.68
2024-03-02T08:29:47.822Z,51.57
2024-03-02T08:30:47.843Z,50.34
2024-03-02T08:31:47.809Z,53.39
2024-03-02T08:32:47.873Z,52.05
2024-03-02T08:33:47.877Z,51.35
2024-03-02T08:34:47.832Z,54.55
2024-03-02T08:35:47.837Z,50.99
2024-03-02T08:36:47.891Z,52.31
2024-03-02T08:37:47.856Z,52.29
2024-03-02T08:38:47.861Z,50.18
2024-03-02T08:39:47.915Z,51.83
2024-03-02T08:40:47.895Z,52.29
2024-03-02T08:41:47.904Z,51.73
2024-03-02T08:42:47.944Z,51.92
2024-03-02T08:43:47.923Z,50.90
2024-03-02T08:44:47.946Z,51.92
2024-03-02T08:45:47.971Z,52.00
2024-03-02T08:46:47.980Z,55.29
2024-03-02T08:47:48.001Z,54.32
2024-03-02T08:48:47.995Z,53.31
2024-03-02T08:49:48.012Z,52.53
2024-03-02T08:50:48.009Z,52.17
2024-03-02T08:51:48.023Z,50.96
2024-03-02T08:52:48.024Z,51.31
2024-03-02T08:53:48.034Z,52.59
2024-03-02T08:54:48.044Z,51.97
2024-03-02T08:55:48.068Z,53.17
2024-03-02T08:56:48.047Z,52.32
2024-03-02T08:57:48.064Z,50.80
2024-03-02T08:58:48.050Z,51.22
2024-03-02T08:59:48.051Z,51.29
2024-03-02T09:00:48.122Z,50.93
2024-03-02T09:01:48.074Z,50.00
2024-03-02T09:02:48.063Z,51.07
2024-03-02T09:03:48.092Z,51.20
2024-03-02T09:04:48.053Z,51.16
2024-03-02T09:05:48.068Z,52.84
2024-03-02T09:06:48.088Z,51.79
2024-03-02T09:07:48.082Z,51.46
2024-03-02T09:08:48.061Z,52.02
2024-03-02T09:09:48.079Z,52.16
2024-03-02T09:10:48.068Z,51.73
2024-03-02T09:11:48.158Z,51.73
2024-03-02T09:12:48.127Z,51.98
2024-03-02T09:13:48.075Z,52.75
2024-03-02T09:14:48.080Z,51.34
2024-03-02T09:15:48.116Z,51.44
2024-03-02T09:16:48.098Z,51.12
2024-03-02T09:17:48.144Z,52.53
2024-03-02T09:18:48.180Z,50.52
2024-03-02T09:19:48.119Z,52.14
2024-03-02T09:20:48.139Z,52.28
2024-03-02T09:21:48.241Z,52.40
2024-03-02T09:22:48.166Z,51.82
2024-03-02T09:23:48.150Z,52.09
2024-03-02T09:24:48.145Z,52.88
2024-03-02T09:25:48.161Z,52.64
2024-03-02T09:26:48.152Z,52.17
2024-03-02T09:27:48.207Z,52.40
2024-03-02T09:28:48.188Z,50.92
2024-03-02T09:29:48.180Z,52.62
2024-03-02T09:30:48.213Z,51.31
2024-03-02T09:31:48.184Z,51.23
2024-03-02T09:32:50.549Z,52.89
2024-03-02T09:33:48.458Z,51.80
2024-03-02T09:34:48.401Z,52.08
2024-03-02T09:35:48.433Z,51.80
2024-03-02T09:36:48.436Z,51.22
2024-03-02T09:37:48.420Z,51.87
2024-03-02T09:38:48.421Z,50.62
2024-03-02T09:39:48.449Z,51.81
2024-03-02T09:40:48.439Z,51.23
2024-03-02T09:41:48.451Z,51.71
2024-03-02T09:42:48.506Z,51.13
2024-03-02T09:43:48.465Z,50.99
2024-03-02T09:44:48.461Z,52.99
2024-03-02T09:45:48.480Z,53.25
2024-03-02T09:46:48.474Z,53.93
2024-03-02T09:47:48.475Z,53.88
2024-03-02T09:48:48.532Z,54.41
2024-03-02T09:49:48.465Z,52.05
2024-03-02T09:50:48.479Z,54.46
2024-03-02T09:51:48.496Z,52.01
2024-03-02T09:52:48.463Z,50.51
2024-03-02T09:53:48.459Z,56.38
2024-03-02T09:54:48.503Z,55.52
2024-03-02T09:55:48.494Z,54.12
2024-03-02T09:56:48.524Z,56.81
2024-03-02T09:57:48.554Z,51.72
2024-03-02T09:58:48.567Z,51.68
2024-03-02T09:59:48.612Z,54.40
2024-03-02T10:00:48.699Z,55.83
2024-03-02T10:01:48.702Z,55.17
2024-03-02T10:02:49.255Z,53.37
2024-03-02T10:03:48.798Z,56.57
2024-03-02T10:04:48.829Z,54.87
2024-03-02T10:05:48.914Z,54.28
2024-03-02T10:06:48.958Z,52.73
2024-03-02T10:07:48.980Z,55.41
2024-03-02T10:08:49.042Z,51.57
2024-03-02T10:09:49.208Z,54.25
2024-03-02T10:10:49.196Z,56.05
2024-03-02T10:11:49.201Z,56.15
2024-03-02T10:12:49.312Z,53.24
2024-03-02T10:13:49.310Z,56.48
2024-03-02T10:14:49.366Z,60.12
2024-03-02T10:15:49.475Z,59.24
2024-03-02T10:16:49.473Z,55.89
2024-03-02T10:17:49.546Z,53.79
2024-03-02T10:18:49.640Z,55.19
2024-03-02T10:19:49.653Z,59.44
2024-03-02T10:20:49.704Z,64.07
2024-03-02T10:21:49.850Z,55.72
2024-03-02T10:22:49.823Z,58.13
2024-03-02T10:23:49.890Z,58.63
2024-03-02T10:24:53.647Z,56.52
2024-03-02T10:25:55.337Z,56.49
2024-03-02T10:26:51.026Z,56.65
2024-03-02T10:27:49.981Z,57.01
2024-03-02T10:28:49.937Z,57.64
2024-03-02T10:29:49.927Z,55.95
2024-03-02T10:30:50.152Z,56.12
2024-03-02T10:31:49.914Z,55.73
2024-03-02T10:32:49.943Z,58.77
2024-03-02T10:33:49.925Z,54.52
2024-03-02T10:34:49.915Z,55.61
2024-03-02T10:35:49.913Z,54.67
2024-03-02T10:36:49.959Z,54.58
2024-03-02T10:37:49.879Z,53.24
2024-03-02T10:38:49.877Z,52.65
2024-03-02T10:39:49.927Z,56.45
2024-03-02T10:40:49.915Z,56.49
2024-03-02T10:41:49.843Z,56.10
2024-03-02T10:42:49.845Z,53.46
2024-03-02T10:43:49.800Z,54.99
2024-03-02T10:44:49.800Z,55.95
2024-03-02T10:45:49.848Z,55.65
2024-03-02T10:46:49.762Z,56.09
2024-03-02T10:47:49.903Z,56.02
2024-03-02T10:48:49.804Z,58.43
2024-03-02T10:49:49.746Z,55.85
2024-03-02T10:50:49.732Z,56.75
2024-03-02T10:51:49.800Z,56.16
2024-03-02T10:52:49.713Z,56.46
2024-03-02T10:53:49.693Z,57.33
2024-03-02T10:54:49.837Z,54.80
2024-03-02T10:55:49.717Z,55.69
2024-03-02T10:56:49.712Z,56.47
2024-03-02T10:57:49.770Z,57.04
2024-03-02T10:58:49.776Z,57.26
2024-03-02T10:59:49.769Z,57.21
2024-03-02T11:00:49.837Z,57.05
2024-03-02T11:01:49.884Z,57.01
2024-03-02T11:02:49.844Z,55.53
2024-03-02T11:03:49.892Z,58.94
2024-03-02T11:04:49.877Z,55.97
2024-03-02T11:05:49.902Z,57.23
2024-03-02T11:06:49.990Z,59.05
2024-03-02T11:07:49.932Z,59.20
2024-03-02T11:08:49.961Z,59.61
2024-03-02T11:09:50.031Z,57.66
2024-03-02T11:10:50.040Z,58.07
2024-03-02T11:11:50.021Z,58.73
2024-03-02T11:12:50.084Z,56.15
2024-03-02T11:13:50.067Z,55.50
2024-03-02T11:14:50.094Z,58.99
2024-03-02T11:15:50.123Z,58.37
2024-03-02T11:16:50.124Z,58.25
2024-03-02T11:17:50.133Z,57.00
2024-03-02T11:18:50.198Z,57.79
2024-03-02T11:19:50.172Z,58.97
2024-03-02T11:20:50.228Z,57.88
2024-03-02T11:21:50.228Z,58.68
2024-03-02T11:22:50.223Z,58.01
2024-03-02T11:23:50.245Z,58.08
2024-03-02T11:24:50.345Z,58.40
2024-03-02T11:25:50.294Z,54.42
2024-03-02T11:26:50.313Z,57.66
2024-03-02T11:27:50.356Z,59.65
2024-03-02T11:28:50.353Z,59.53
2024-03-02T11:29:50.370Z,58.48
2024-03-02T11:30:50.450Z,61.26
2024-03-02T11:31:50.415Z,59.94
2024-03-02T11:32:50.466Z,58.97
2024-03-02T11:33:50.519Z,58.19
2024-03-02T11:34:50.502Z,60.27
2024-03-02T11:35:50.526Z,57.56
2024-03-02T11:36:50.572Z,61.26
2024-03-02T11:37:50.532Z,59.68
2024-03-02T11:38:50.592Z,60.10
2024-03-02T11:39:50.634Z,58.41
2024-03-02T11:40:50.579Z,59.55
2024-03-02T11:41:52.613Z,59.26
2024-03-02T11:42:50.674Z,60.48
2024-03-02T11:43:50.578Z,60.35
2024-03-02T11:44:50.625Z,58.48
2024-03-02T11:45:50.576Z,56.79
2024-03-02T11:46:50.544Z,60.53
2024-03-02T11:47:50.551Z,58.73
2024-03-02T11:48:50.526Z,57.23
2024-03-02T11:49:50.518Z,61.06
2024-03-02T11:50:50.489Z,57.84
2024-03-02T11:51:50.523Z,58.05
2024-03-02T11:52:50.489Z,59.07
2024-03-02T11:53:50.479Z,61.06
2024-03-02T11:54:50.627Z,57.85
2024-03-02T11:55:50.559Z,60.74
2024-03-02T11:56:50.452Z,56.96
2024-03-02T11:57:50.441Z,57.56
2024-03-02T11:58:50.496Z,55.84
2024-03-02T11:59:50.420Z,56.12
2024-03-02T12:00:50.478Z,57.21
2024-03-02T12:01:50.443Z,58.33
2024-03-02T12:02:50.377Z,58.63
2024-03-02T12:03:50.386Z,59.17
2024-03-02T12:04:50.386Z,58.07
2024-03-02T12:05:50.356Z,55.70
2024-03-02T12:06:50.377Z,57.34
2024-03-02T12:07:50.305Z,57.33
2024-03-02T12:08:50.289Z,56.87
2024-03-02T12:09:50.315Z,57.00
2024-03-02T12:10:50.277Z,56.11
2024-03-02T12:11:50.274Z,56.62
2024-03-02T12:12:50.332Z,58.07
2024-03-02T12:13:50.226Z,55.63
2024-03-02T12:14:50.209Z,57.09
2024-03-02T12:15:50.225Z,55.72
2024-03-02T12:16:50.197Z,55.07
2024-03-02T12:17:50.222Z,56.91
2024-03-02T12:18:50.242Z,59.70
2024-03-02T12:19:50.177Z,58.34
2024-03-02T12:20:50.164Z,58.68
2024-03-02T12:21:50.185Z,55.99
2024-03-02T12:22:50.138Z,57.39
2024-03-02T12:23:50.128Z,58.78
2024-03-02T12:24:50.204Z,57.31
2024-03-02T12:25:50.104Z,57.71
2024-03-02T12:26:50.094Z,57.50
2024-03-02T12:27:50.156Z,54.82
2024-03-02T12:28:50.066Z,57.54
2024-03-02T12:29:50.065Z,56.76
2024-03-02T12:30:50.082Z,55.95
2024-03-02T12:31:50.059Z,56.07
2024-03-02T12:32:50.108Z,52.35
2024-03-02T12:33:50.243Z,56.76
2024-03-02T12:34:50.248Z,55.33
2024-03-02T12:35:50.251Z,53.94
2024-03-02T12:36:50.346Z,57.40
2024-03-02T12:37:50.351Z,54.81
2024-03-02T12:38:50.418Z,61.11
2024-03-02T12:39:50.491Z,59.08
2024-03-02T12:40:50.574Z,52.47
2024-03-02T12:41:50.602Z,56.86
2024-03-02T12:42:50.711Z,59.15
2024-03-02T12:43:50.699Z,56.42
2024-03-02T12:44:50.741Z,54.98
2024-03-02T12:45:50.835Z,58.51
2024-03-02T12:46:50.868Z,60.12
2024-03-02T12:47:50.933Z,59.52
2024-03-02T12:48:51.015Z,54.80
2024-03-02T12:49:51.013Z,57.02
2024-03-02T12:50:51.064Z,57.92
2024-03-02T12:51:51.152Z,55.64
2024-03-02T12:52:51.171Z,54.87
2024-03-02T12:53:51.224Z,57.90
2024-03-02T12:54:51.286Z,58.57